Dewitt, New York
Current Conditions -  °F | °C
As of 4:54 AM on Saturday 25 Oct 2014 (Local Time) from KSYR Reporting Station
Scattered Clouds Scattered Clouds  
Wind Chill: 44°   Ceiling: Unl
Heat Index: 47°   Visibility: 8mi
Dew Point: 43°   Wind: 7mph
Humidity: 86%   Direction: 250°WSW
Pressure: 29.86"   Gusts: NA
Location:  43.0412°N, 76.074°W
Report Text: KSYR 250854Z 25006KT 8SM SCT065 08/06 A2986 RMK AO2 SLP110 T00830061 58005 $
Loading
Personal Weather Stations






























Interactive Weather Map
Tropical Storm Tracking
New forecast layout! Learn more

10-Day Weather Forecast

Advertisements
Track Severe Weather on mobile